Time;durP1;ratioP1;P1;durP2;ratioP2;P2;SDS_P1;SDS_P2;PMS_P1;PMS_P2;Temp;Humidity;BMP_temperature;BMP_pressure;BME280_temperature;BME280_humidity;BME280_pressure;Samples;Min_cycle;Max_cycle;Signal;HPM_P1;HPM_P2
2021/12/05 00:21:40;;;;;;;21.60;10.65;;;4.40;99.90;;;;;;5031635;28;20086;-82
2021/12/05 00:24:14;;;;;;;22.02;9.98;;;4.30;99.90;;;;;;5019909;28;20380;-82
2021/12/05 00:26:47;;;;;;;28.38;10.60;;;4.40;99.90;;;;;;5022648;28;20596;-81
2021/12/05 00:32:01;;;;;;;33.67;12.18;;;4.40;99.90;;;;;;5039982;28;20041;-82
2021/12/05 00:53:39;;;;;;;23.35;10.70;;;4.40;99.90;;;;;;5013375;28;20049;-82
2021/12/05 00:56:13;;;;;;;25.90;11.18;;;4.40;99.90;;;;;;5030162;28;20099;-82
2021/12/05 01:09:47;;;;;;;20.02;10.02;;;4.40;99.90;;;;;;5043138;28;19952;-82
2021/12/05 01:17:57;;;;;;;19.55;9.70;;;4.30;99.90;;;;;;5026510;28;20056;-82
2021/12/05 01:20:23;;;;;;;24.27;10.18;;;4.30;99.90;;;;;;5038160;28;20037;-82
2021/12/05 01:22:58;;;;;;;18.00;9.90;;;4.30;99.90;;;;;;5021378;28;20041;-82
2021/12/05 01:25:36;;;;;;;;;;;4.30;99.90;;;;;;5035315;28;20507;-82
2021/12/05 01:30:49;;;;;;;17.83;9.45;;;4.40;99.90;;;;;;5035330;28;20518;-82
2021/12/05 02:42:46;;;;;;;15.82;9.35;;;4.40;99.90;;;;;;5047687;28;20034;-82
2021/12/05 02:45:12;;;;;;;15.75;9.38;;;4.40;99.90;;;;;;5029717;28;20029;-82
2021/12/05 02:47:47;;;;;;;17.95;8.88;;;4.50;99.90;;;;;;5032840;28;20043;-82
2021/12/05 02:50:14;;;;;;;24.80;9.88;;;4.40;99.90;;;;;;5042000;28;20396;-82
2021/12/05 02:52:42;;;;;;;18.27;9.15;;;4.40;99.90;;;;;;5019584;28;20044;-82
2021/12/05 02:55:24;;;;;;;23.25;9.30;;;4.40;99.90;;;;;;5017800;28;20400;-82
2021/12/05 02:57:54;;;;;;;21.33;9.48;;;4.50;99.90;;;;;;5015307;28;20048;-82
2021/12/05 03:00:41;;;;;;;18.45;9.35;;;4.40;99.90;;;;;;5032327;28;20423;-82
2021/12/05 03:03:19;;;;;;;21.73;9.48;;;4.40;99.90;;;;;;5047867;28;20126;-82
2021/12/05 03:05:50;;;;;;;18.52;8.57;;;4.40;99.90;;;;;;5027063;28;20349;-82
2021/12/05 03:08:16;;;;;;;23.60;9.88;;;4.40;99.90;;;;;;5045524;28;20044;-82
2021/12/05 03:10:43;;;;;;;20.25;9.75;;;4.30;99.90;;;;;;5030945;28;20049;-82
2021/12/05 03:13:09;;;;;;;21.70;10.20;;;4.40;99.90;;;;;;5027709;28;20377;-82
2021/12/05 03:15:35;;;;;;;19.38;10.13;;;4.40;99.90;;;;;;5017604;28;20056;-82
2021/12/05 03:18:01;;;;;;;20.08;10.55;;;4.40;99.90;;;;;;5019290;28;20107;-82
2021/12/05 03:20:26;;;;;;;20.67;10.70;;;4.30;99.90;;;;;;5030268;28;20052;-82
2021/12/05 03:22:53;;;;;;;18.77;10.35;;;4.40;99.90;;;;;;5020159;28;20038;-82
2021/12/05 03:25:20;;;;;;;22.38;11.27;;;4.40;99.90;;;;;;5032363;28;20045;-81
2021/12/05 03:27:46;;;;;;;24.92;11.32;;;4.40;99.90;;;;;;5038125;28;20474;-82
2021/12/05 03:30:17;;;;;;;25.55;11.63;;;4.40;99.90;;;;;;5017934;28;20093;-82
2021/12/05 03:32:46;;;;;;;27.20;12.48;;;4.50;99.90;;;;;;5014917;28;20542;-82
2021/12/05 03:35:12;;;;;;;25.77;12.50;;;4.40;99.90;;;;;;5019309;28;20524;-82
2021/12/05 03:37:37;;;;;;;27.80;12.77;;;4.50;99.90;;;;;;5022020;28;20041;-82
2021/12/05 03:40:09;;;;;;;29.80;13.40;;;4.40;99.90;;;;;;5019358;28;20094;-82
2021/12/05 03:42:36;;;;;;;34.92;14.07;;;4.40;99.90;;;;;;5019228;28;20056;-82
2021/12/05 03:45:06;;;;;;;30.52;13.80;;;4.50;99.90;;;;;;5033561;28;20079;-82
2021/12/05 03:47:32;;;;;;;27.55;13.98;;;4.40;99.90;;;;;;5051642;28;20052;-82
2021/12/05 03:49:58;;;;;;;31.25;14.38;;;4.40;99.90;;;;;;5046348;28;20041;-82
2021/12/05 03:52:26;;;;;;;29.00;14.52;;;4.40;99.90;;;;;;5033285;28;20383;-82
2021/12/05 03:54:52;;;;;;;27.42;14.27;;;4.30;99.90;;;;;;5047905;28;20369;-82
2021/12/05 03:57:18;;;;;;;31.90;15.85;;;4.30;99.90;;;;;;5034657;28;21445;-82
2021/12/05 03:59:44;;;;;;;32.65;15.15;;;4.30;99.90;;;;;;5022289;28;20040;-82
2021/12/05 04:02:10;;;;;;;30.38;15.73;;;4.20;99.90;;;;;;5037615;28;20560;-81
2021/12/05 04:04:37;;;;;;;34.33;16.85;;;4.20;99.90;;;;;;5016240;28;20041;-82
2021/12/05 04:07:05;;;;;;;30.83;15.95;;;4.20;99.90;;;;;;5034633;28;20111;-82
2021/12/05 04:09:31;;;;;;;31.65;14.93;;;4.20;99.90;;;;;;5037099;28;20349;-82
2021/12/05 04:12:02;;;;;;;32.40;16.13;;;4.30;99.90;;;;;;5037049;28;20051;-81
2021/12/05 04:14:36;;;;;;;34.60;17.38;;;4.30;99.90;;;;;;5032867;28;20045;-81
2021/12/05 04:17:04;;;;;;;39.15;17.48;;;4.20;99.90;;;;;;5034890;28;20129;-82
2021/12/05 04:19:29;;;;;;;42.33;18.17;;;4.20;99.90;;;;;;5047978;28;20059;-82
2021/12/05 04:21:56;;;;;;;43.50;19.23;;;4.20;99.90;;;;;;5013436;28;20037;-82
2021/12/05 04:24:22;;;;;;;41.78;17.83;;;4.20;99.90;;;;;;5017334;28;20510;-81
2021/12/05 04:26:51;;;;;;;32.38;17.83;;;4.20;99.90;;;;;;5029613;28;20454;-82
2021/12/05 04:29:18;;;;;;;35.63;18.23;;;4.20;99.90;;;;;;5019545;28;20049;-81
2021/12/05 04:31:44;;;;;;;36.80;17.77;;;4.30;99.90;;;;;;5034194;28;20045;-82
2021/12/05 04:34:12;;;;;;;32.83;16.60;;;4.20;99.90;;;;;;5033557;28;20466;-82
2021/12/05 04:36:39;;;;;;;36.63;17.98;;;4.30;99.90;;;;;;5037094;28;20056;-82
2021/12/05 04:39:05;;;;;;;30.75;17.92;;;4.30;99.90;;;;;;5033055;28;20037;-82
2021/12/05 04:41:31;;;;;;;33.53;16.75;;;4.20;99.90;;;;;;5022597;28;20345;-82
2021/12/05 04:43:59;;;;;;;32.28;17.05;;;4.20;99.90;;;;;;5029090;28;20140;-81
2021/12/05 04:46:26;;;;;;;35.05;17.23;;;4.30;99.90;;;;;;5038058;28;20124;-82
2021/12/05 04:48:57;;;;;;;33.33;15.98;;;4.20;99.90;;;;;;5031253;28;20447;-82
2021/12/05 04:51:30;;;;;;;30.45;16.58;;;4.30;99.90;;;;;;5030724;28;20313;-82
2021/12/05 04:53:56;;;;;;;33.50;17.48;;;4.30;99.90;;;;;;5031260;28;20041;-82
2021/12/05 04:56:24;;;;;;;32.15;16.25;;;4.20;99.90;;;;;;5028882;28;20037;-82
2021/12/05 04:58:50;;;;;;;30.88;16.67;;;4.20;99.90;;;;;;5027968;28;20129;-81
2021/12/05 05:01:15;;;;;;;28.27;15.48;;;4.20;99.90;;;;;;5031614;28;20120;-82
2021/12/05 05:03:41;;;;;;;28.02;15.75;;;4.20;99.90;;;;;;5027370;28;20124;-82
2021/12/05 05:06:16;;;;;;;26.63;14.10;;;4.10;99.90;;;;;;5028499;28;20045;-82
2021/12/05 05:08:48;;;;;;;29.52;15.05;;;4.10;99.90;;;;;;5016035;28;20505;-82
2021/12/05 05:11:16;;;;;;;31.83;14.23;;;4.10;99.90;;;;;;5050031;28;20076;-82
2021/12/05 05:13:43;;;;;;;30.00;14.23;;;4.10;99.90;;;;;;5019362;28;20047;-82
2021/12/05 05:16:10;;;;;;;27.08;14.20;;;4.10;99.90;;;;;;5028611;28;20040;-82
2021/12/05 05:18:48;;;;;;;24.33;12.73;;;4.10;99.90;;;;;;5020023;28;20045;-81
2021/12/05 05:29:24;;;;;;;25.13;11.45;;;4.00;99.90;;;;;;5033347;28;20065;-82
2021/12/05 05:47:52;;;;;;;21.08;9.18;;;3.90;99.90;;;;;;5031327;28;20049;-82
2021/12/05 05:50:20;;;;;;;26.27;9.85;;;3.90;99.90;;;;;;5019253;28;20131;-82
2021/12/05 05:52:46;;;;;;;18.88;10.43;;;3.80;99.90;;;;;;5029245;28;20191;-81
2021/12/05 05:55:12;;;;;;;25.65;10.05;;;3.80;99.90;;;;;;5017886;28;20116;-82
2021/12/05 06:00:32;;;;;;;17.65;9.02;;;3.80;99.90;;;;;;5047744;28;20037;-82
2021/12/05 06:05:43;;;;;;;;;;;3.80;99.90;;;;;;5030643;28;20061;-82
2021/12/05 06:08:12;;;;;;;19.13;8.93;;;3.80;99.90;;;;;;5037686;28;20418;-81
2021/12/05 06:10:38;;;;;;;22.92;9.90;;;3.70;99.90;;;;;;5030266;28;20471;-81
2021/12/05 06:13:04;;;;;;;21.40;8.32;;;3.80;99.90;;;;;;5030113;28;20128;-82
2021/12/05 06:15:30;;;;;;;21.90;8.95;;;3.70;99.90;;;;;;5016608;28;20289;-82
2021/12/05 06:17:56;;;;;;;22.92;8.90;;;3.70;99.90;;;;;;5044632;28;20408;-82
2021/12/05 06:20:26;;;;;;;20.17;8.98;;;3.70;99.90;;;;;;5035854;28;20548;-82
2021/12/05 06:22:53;;;;;;;19.42;8.45;;;3.70;99.90;;;;;;5033219;28;20037;-82
2021/12/05 06:25:23;;;;;;;18.67;9.40;;;3.70;99.90;;;;;;5014240;28;20602;-82
2021/12/05 06:27:51;;;;;;;20.25;8.63;;;3.70;99.90;;;;;;5031047;28;20036;-82
2021/12/05 06:30:30;;;;;;;22.65;8.63;;;3.70;99.90;;;;;;5046979;28;20195;-82
2021/12/05 06:46:06;;;;;;;23.85;9.48;;;3.60;99.90;;;;;;5030460;28;20507;-82
2021/12/05 06:48:32;;;;;;;22.00;9.35;;;3.60;99.90;;;;;;5035326;28;20037;-82
2021/12/05 06:50:58;;;;;;;22.58;8.93;;;3.60;99.90;;;;;;5019928;28;20506;-81
2021/12/05 06:53:24;;;;;;;21.83;9.48;;;3.70;99.90;;;;;;5032386;28;20033;-82
2021/12/05 06:55:49;;;;;;;20.17;9.38;;;3.70;99.90;;;;;;5026447;28;20037;-82
2021/12/05 06:58:18;;;;;;;21.33;9.38;;;3.70;99.90;;;;;;5034429;28;20069;-81
2021/12/05 07:00:43;;;;;;;20.15;8.75;;;3.60;99.90;;;;;;5032237;28;20535;-82
2021/12/05 07:03:10;;;;;;;21.30;9.15;;;3.70;99.90;;;;;;5016672;28;20033;-81
2021/12/05 07:08:05;;;;;;;22.75;9.23;;;3.70;99.90;;;;;;5048877;28;20057;-82
2021/12/05 07:10:37;;;;;;;23.08;9.57;;;3.70;99.90;;;;;;5018271;28;20043;-82
2021/12/05 07:15:50;;;;;;;21.13;9.90;;;3.70;99.90;;;;;;5028077;28;20293;-82
2021/12/05 07:26:05;;;;;;;22.35;9.85;;;3.70;99.90;;;;;;5047539;28;20095;-81
2021/12/05 07:42:23;;;;;;;20.83;10.23;;;3.80;99.90;;;;;;5045745;28;20096;-82
2021/12/05 07:44:52;;;;;;;22.42;9.85;;;3.90;99.90;;;;;;5029285;28;20052;-82
2021/12/05 07:47:24;;;;;;;20.65;9.75;;;3.80;99.90;;;;;;5017319;28;21861;-82
2021/12/05 07:49:52;;;;;;;23.50;9.75;;;3.80;99.90;;;;;;5026218;28;20587;-82
2021/12/05 07:52:22;;;;;;;24.10;10.32;;;3.80;99.90;;;;;;5010151;28;20067;-82
2021/12/05 07:55:01;;;;;;;18.73;9.68;;;3.80;99.90;;;;;;5014198;28;20041;-82
2021/12/05 07:57:34;;;;;;;24.50;10.70;;;3.90;99.90;;;;;;5018950;28;20037;-82
2021/12/05 08:16:41;;;;;;;20.60;11.18;;;4.00;99.90;;;;;;5051529;28;20041;-81
2021/12/05 08:19:07;;;;;;;23.63;11.60;;;4.00;99.90;;;;;;5021780;28;20041;-82
2021/12/05 08:21:33;;;;;;;23.83;11.95;;;4.10;99.90;;;;;;5033024;28;20044;-82
2021/12/05 08:23:59;;;;;;;22.73;11.90;;;4.10;99.90;;;;;;5018036;28;20029;-81
2021/12/05 08:26:31;;;;;;;28.67;12.70;;;4.20;99.90;;;;;;5015727;28;20298;-82
2021/12/05 08:29:09;;;;;;;24.30;12.20;;;4.10;99.90;;;;;;5017970;28;21739;-81
2021/12/05 08:45:08;;;;;;;27.92;11.55;;;4.30;99.90;;;;;;5030555;28;20385;-82
2021/12/05 09:28:35;;;;;;;22.92;11.30;;;4.70;99.90;;;;;;5027574;28;20049;-82
2021/12/05 10:15:04;;;;;;;22.90;10.93;;;4.90;99.90;;;;;;5032899;28;20042;-82
2021/12/05 10:37:12;;;;;;;20.73;9.38;;;4.90;99.90;;;;;;5032301;28;20037;-81
2021/12/05 10:39:42;;;;;;;19.15;10.00;;;5.00;99.90;;;;;;5032239;28;20622;-82
2021/12/05 10:42:40;;;;;;;18.08;10.18;;;5.00;99.90;;;;;;5018610;28;20033;-82
2021/12/05 10:45:26;;;;;;;17.85;10.23;;;4.90;99.90;;;;;;5031450;28;20038;-82
2021/12/05 10:47:55;;;;;;;17.88;10.38;;;5.00;99.90;;;;;;5046657;28;20424;-82
2021/12/05 10:50:32;;;;;;;20.48;10.43;;;5.00;99.90;;;;;;5017856;28;20041;-82
2021/12/05 10:53:19;;;;;;;15.38;10.35;;;5.00;99.90;;;;;;5018155;28;20032;-82
2021/12/05 10:55:46;;;;;;;18.10;9.95;;;5.00;99.90;;;;;;5018410;28;20037;-82
2021/12/05 10:58:12;;;;;;;18.48;10.50;;;5.00;99.90;;;;;;5028814;28;20481;-82
2021/12/05 11:00:37;;;;;;;21.75;10.60;;;5.10;99.90;;;;;;5030860;28;20524;-82
2021/12/05 11:03:18;;;;;;;21.67;10.57;;;5.00;99.90;;;;;;5027363;28;20029;-82
2021/12/05 11:05:44;;;;;;;15.75;10.43;;;5.10;99.90;;;;;;5025586;28;20120;-82
2021/12/05 11:08:37;;;;;;;17.27;9.98;;;5.00;99.90;;;;;;5024668;28;20045;-82
2021/12/05 11:11:12;;;;;;;21.23;10.45;;;5.10;99.90;;;;;;5033183;28;20163;-82
2021/12/05 11:13:43;;;;;;;18.30;10.90;;;5.10;99.90;;;;;;5017801;28;20460;-82
2021/12/05 11:16:39;;;;;;;20.40;10.65;;;5.10;99.90;;;;;;5035474;28;20500;-82
2021/12/05 11:19:13;;;;;;;19.52;9.80;;;5.10;99.90;;;;;;5030756;28;20049;-81
2021/12/05 11:21:46;;;;;;;16.45;9.77;;;5.10;99.90;;;;;;5019267;28;20587;-82
2021/12/05 11:24:23;;;;;;;18.85;10.02;;;5.10;99.90;;;;;;5032996;28;20044;-82
2021/12/05 11:27:11;;;;;;;20.50;9.93;;;5.10;99.90;;;;;;5028611;28;20495;-82
2021/12/05 11:29:41;;;;;;;;;;;5.10;99.90;;;;;;5027476;28;20041;-82
2021/12/05 11:32:12;;;;;;;20.15;10.27;;;5.20;99.90;;;;;;5035035;28;19916;-82
2021/12/05 11:34:38;;;;;;;22.23;10.95;;;5.20;99.90;;;;;;5013171;28;20416;-82
2021/12/05 11:37:04;;;;;;;22.20;10.45;;;5.30;99.90;;;;;;5034510;28;20037;-82
2021/12/05 11:39:30;;;;;;;17.83;10.60;;;5.20;99.90;;;;;;5015935;28;20480;-82
2021/12/05 11:41:56;;;;;;;17.00;10.25;;;5.20;99.90;;;;;;5033368;28;20029;-82
2021/12/05 11:44:25;;;;;;;18.00;9.73;;;5.30;99.90;;;;;;5013559;28;20038;-83
2021/12/05 11:46:51;;;;;;;22.55;10.40;;;5.40;99.90;;;;;;5036920;28;20084;-82
2021/12/05 11:49:21;;;;;;;20.80;10.25;;;5.30;99.90;;;;;;5021025;28;20043;-84
2021/12/05 11:51:58;;;;;;;20.63;9.77;;;5.50;99.90;;;;;;5031703;28;20037;-83
2021/12/05 11:54:37;;;;;;;18.35;10.60;;;5.40;99.90;;;;;;5031804;28;20064;-83
2021/12/05 11:57:09;;;;;;;18.38;9.65;;;5.50;99.90;;;;;;5020977;28;20040;-82
2021/12/05 11:59:41;;;;;;;21.10;9.40;;;5.60;99.90;;;;;;5023842;28;20037;-84
2021/12/05 12:02:18;;;;;;;15.10;9.63;;;5.40;99.90;;;;;;5035659;28;20033;-84
2021/12/05 12:04:52;;;;;;;19.80;10.25;;;5.50;99.90;;;;;;5035971;28;20135;-84
2021/12/05 12:07:26;;;;;;;19.05;9.60;;;5.70;99.90;;;;;;5023284;28;20094;-83
2021/12/05 12:10:04;;;;;;;17.33;9.55;;;5.70;99.90;;;;;;5031334;28;20049;-82
2021/12/05 12:12:30;;;;;;;16.02;10.18;;;5.70;99.90;;;;;;5033298;28;20071;-83
2021/12/05 12:14:56;;;;;;;16.40;10.60;;;5.70;99.90;;;;;;5023096;28;20044;-84
2021/12/05 12:17:22;;;;;;;18.30;9.73;;;5.80;99.90;;;;;;5020361;28;20381;-84
2021/12/05 12:19:54;;;;;;;22.65;10.23;;;5.70;99.90;;;;;;5021997;28;20052;-83
2021/12/05 12:22:22;;;;;;;15.68;9.45;;;5.70;99.90;;;;;;5038119;28;20033;-83
2021/12/05 12:24:58;;;;;;;19.42;10.15;;;5.80;99.90;;;;;;5040280;28;20029;-84
2021/12/05 12:27:24;;;;;;;19.25;11.70;;;5.80;99.90;;;;;;5033050;28;20136;-84
2021/12/05 12:29:52;;;;;;;21.27;10.00;;;5.80;99.90;;;;;;5022362;28;20575;-83
2021/12/05 12:32:24;;;;;;;16.52;10.50;;;5.80;99.90;;;;;;5032152;28;20198;-83
2021/12/05 12:34:58;;;;;;;19.35;10.10;;;5.80;99.90;;;;;;5021158;28;20053;-84
2021/12/05 12:37:24;;;;;;;19.83;11.30;;;5.80;99.90;;;;;;5037156;28;20408;-84
2021/12/05 12:39:51;;;;;;;27.92;12.55;;;5.90;99.90;;;;;;5034810;28;20037;-84
2021/12/05 12:42:20;;;;;;;21.08;10.88;;;5.90;99.90;;;;;;5021370;28;20037;-83
2021/12/05 12:45:06;;;;;;;19.58;11.73;;;6.00;99.90;;;;;;5033601;28;20032;-85
2021/12/05 12:47:52;;;;;;;22.20;11.48;;;6.10;99.90;;;;;;5018616;28;20033;-84
2021/12/05 12:50:38;;;;;;;16.13;10.20;;;6.10;99.90;;;;;;5030197;28;20052;-83
2021/12/05 12:53:08;;;;;;;20.25;11.07;;;6.20;99.90;;;;;;5032919;28;20053;-81
2021/12/05 12:55:41;;;;;;;25.90;13.32;;;6.40;99.90;;;;;;5018477;28;20193;-83
2021/12/05 12:58:10;;;;;;;18.08;10.60;;;6.60;99.90;;;;;;5036159;28;20112;-82
2021/12/05 13:00:42;;;;;;;18.65;10.77;;;6.50;99.90;;;;;;5012679;28;20033;-81
2021/12/05 13:03:40;;;;;;;;;;;6.80;99.90;;;;;;5020460;28;20036;-82
2021/12/05 13:11:50;;;;;;;16.52;9.35;;;7.10;99.90;;;;;;5048882;28;20465;-82
2021/12/05 13:14:18;;;;;;;13.95;8.95;;;7.00;99.90;;;;;;5020073;28;20076;-82
2021/12/05 13:16:44;;;;;;;18.90;10.60;;;7.00;99.90;;;;;;5023444;28;20896;-82
2021/12/05 13:19:12;;;;;;;17.13;9.02;;;6.90;99.90;;;;;;5029296;28;20332;-81
2021/12/05 13:21:42;;;;;;;14.45;9.07;;;6.80;99.90;;;;;;5018743;28;20048;-82
2021/12/05 13:24:31;;;;;;;13.77;9.75;;;6.80;99.90;;;;;;5047482;28;20044;-81
2021/12/05 13:27:09;;;;;;;14.93;8.50;;;6.70;99.90;;;;;;5021194;28;20163;-81
2021/12/05 13:29:50;;;;;;;14.50;8.98;;;6.60;99.90;;;;;;5015595;28;20162;-82
2021/12/05 13:32:24;;;;;;;13.43;9.20;;;6.50;99.90;;;;;;5033767;28;20484;-81
2021/12/05 13:34:51;;;;;;;16.83;9.15;;;6.40;99.90;;;;;;5030807;28;20095;-81
2021/12/05 13:37:22;;;;;;;12.88;8.30;;;6.30;99.90;;;;;;5021559;28;20049;-81
2021/12/05 13:40:16;;;;;;;15.50;8.23;;;6.40;99.90;;;;;;5032057;28;20059;-81
2021/12/05 13:42:52;;;;;;;15.43;8.47;;;6.30;99.90;;;;;;5020180;28;20038;-81
2021/12/05 13:45:22;;;;;;;13.32;8.60;;;6.20;99.90;;;;;;5030332;28;20837;-80
2021/12/05 13:47:54;;;;;;;17.80;10.20;;;6.30;99.90;;;;;;5035074;28;20037;-81
2021/12/05 13:50:22;;;;;;;16.20;11.18;;;6.30;99.90;;;;;;5034585;28;20079;-81
2021/12/05 13:53:03;;;;;;;18.45;10.45;;;6.30;99.90;;;;;;5032974;28;20039;-81
2021/12/05 13:55:39;;;;;;;17.70;10.35;;;6.30;99.90;;;;;;5019724;28;20068;-81
2021/12/05 13:58:43;;;;;;;17.45;10.80;;;6.10;99.90;;;;;;5028220;28;20073;-81
2021/12/05 14:01:24;;;;;;;14.65;9.75;;;6.10;99.90;;;;;;5028195;28;20098;-81
2021/12/05 14:04:09;;;;;;;16.20;10.48;;;6.20;99.90;;;;;;5031620;28;20048;-81
2021/12/05 14:06:58;;;;;;;18.83;11.82;;;6.10;99.90;;;;;;5014819;28;20048;-81
2021/12/05 14:09:47;;;;;;;18.48;13.90;;;6.10;99.90;;;;;;5028177;28;20427;-80
2021/12/05 14:12:13;;;;;;;15.88;11.90;;;6.20;99.90;;;;;;5028810;28;20413;-81
2021/12/05 14:14:45;;;;;;;14.70;9.40;;;6.10;99.90;;;;;;5030732;28;20128;-81
2021/12/05 14:17:18;;;;;;;17.25;10.02;;;6.00;99.90;;;;;;5017073;28;20033;-81
2021/12/05 14:19:48;;;;;;;17.20;9.85;;;6.00;99.90;;;;;;5017211;28;20040;-81
2021/12/05 14:22:18;;;;;;;21.73;11.50;;;6.00;99.90;;;;;;5035193;28;20481;-81
2021/12/05 14:24:48;;;;;;;16.48;9.25;;;6.00;99.90;;;;;;5014505;28;20028;-81
2021/12/05 14:27:18;;;;;;;15.65;10.70;;;5.90;99.90;;;;;;5032388;28;20063;-81
2021/12/05 14:29:51;;;;;;;16.50;10.25;;;5.90;99.90;;;;;;5018086;28;20099;-81
2021/12/05 14:32:39;;;;;;;15.02;10.02;;;5.90;99.90;;;;;;5019291;28;20128;-81
2021/12/05 14:35:07;;;;;;;14.88;8.40;;;5.80;99.90;;;;;;5026733;28;20495;-81
2021/12/05 14:37:35;;;;;;;13.43;8.98;;;5.80;99.90;;;;;;5015283;28;20132;-81
2021/12/05 14:40:10;;;;;;;17.42;10.63;;;5.80;99.90;;;;;;5027348;28;20033;-81
2021/12/05 14:42:39;;;;;;;17.38;12.68;;;5.80;99.90;;;;;;5019618;28;20068;-81
2021/12/05 14:45:15;;;;;;;21.80;12.30;;;5.70;99.90;;;;;;5018863;28;20111;-81
2021/12/05 14:47:44;;;;;;;18.33;11.85;;;5.70;99.90;;;;;;5029622;28;20063;-81
2021/12/05 14:50:17;;;;;;;18.70;11.85;;;5.70;99.90;;;;;;5012102;28;20045;-81
2021/12/05 14:52:45;;;;;;;22.05;14.45;;;5.70;99.90;;;;;;5014341;28;20036;-81
2021/12/05 14:55:14;;;;;;;33.55;22.77;;;5.70;99.90;;;;;;5028079;28;20069;-81
2021/12/05 14:57:42;;;;;;;33.08;21.85;;;5.60;99.90;;;;;;5037605;28;20047;-82
2021/12/05 15:00:13;;;;;;;34.38;22.52;;;5.60;99.90;;;;;;5025975;28;20053;-81
2021/12/05 15:02:40;;;;;;;27.67;19.52;;;5.60;99.90;;;;;;5018083;28;20034;-81
2021/12/05 15:05:12;;;;;;;24.77;15.05;;;5.60;99.90;;;;;;5010655;28;20048;-81
2021/12/05 15:07:38;;;;;;;15.90;10.48;;;5.60;99.90;;;;;;5017059;28;20037;-81
2021/12/05 15:10:05;;;;;;;17.80;9.80;;;5.50;99.90;;;;;;5030191;28;20811;-81
2021/12/05 15:12:34;;;;;;;13.80;9.98;;;5.50;99.90;;;;;;5032428;28;20492;-80
2021/12/05 15:15:06;;;;;;;16.05;11.13;;;5.50;99.90;;;;;;5038522;28;20044;-81
2021/12/05 15:17:34;;;;;;;17.25;10.48;;;5.50;99.90;;;;;;5022101;28;20047;-81
2021/12/05 15:20:06;;;;;;;17.88;10.63;;;5.50;99.90;;;;;;5032886;28;20037;-81
2021/12/05 15:22:32;;;;;;;19.38;11.23;;;5.40;99.90;;;;;;5036393;28;20344;-81
2021/12/05 15:25:02;;;;;;;20.50;12.88;;;5.40;99.90;;;;;;5018918;28;20150;-81
2021/12/05 15:27:30;;;;;;;23.40;14.65;;;5.40;99.90;;;;;;5022346;28;20045;-81
2021/12/05 15:30:20;;;;;;;21.98;14.32;;;5.30;99.90;;;;;;5025057;28;20452;-81
2021/12/05 15:32:52;;;;;;;21.88;12.82;;;5.30;99.90;;;;;;5020983;28;20033;-81
2021/12/05 15:35:22;;;;;;;15.50;10.45;;;5.30;99.90;;;;;;5036014;28;20215;-81
2021/12/05 15:37:49;;;;;;;17.85;10.13;;;5.30;99.90;;;;;;5019214;28;20040;-81
2021/12/05 15:40:16;;;;;;;17.50;10.55;;;5.20;99.90;;;;;;5035060;28;20037;-81
2021/12/05 15:42:41;;;;;;;18.73;11.13;;;5.30;99.90;;;;;;5033869;28;20083;-81
2021/12/05 15:45:11;;;;;;;17.27;10.75;;;5.30;99.90;;;;;;5038335;28;20037;-81
2021/12/05 15:47:40;;;;;;;17.40;11.48;;;5.20;99.90;;;;;;5021298;28;20032;-81
2021/12/05 15:50:08;;;;;;;22.63;14.65;;;5.20;99.90;;;;;;5033357;28;20041;-81
2021/12/05 15:52:52;;;;;;;19.75;12.32;;;5.20;99.90;;;;;;5029939;28;20040;-81
2021/12/05 15:55:25;;;;;;;22.65;13.18;;;5.20;99.90;;;;;;5038201;28;21386;-82
2021/12/05 15:58:01;;;;;;;23.48;13.32;;;5.30;99.90;;;;;;5019315;28;20037;-81
2021/12/05 16:00:32;;;;;;;24.15;13.85;;;5.20;99.90;;;;;;5020964;28;20518;-81
2021/12/05 16:03:05;;;;;;;23.73;12.90;;;5.20;99.90;;;;;;5039033;28;20048;-81
2021/12/05 16:05:33;;;;;;;24.67;13.27;;;5.20;99.90;;;;;;5015893;28;20045;-81
2021/12/05 16:08:06;;;;;;;23.52;12.70;;;5.20;99.90;;;;;;5032721;28;20064;-81
2021/12/05 16:10:33;;;;;;;23.85;13.80;;;5.20;99.90;;;;;;5034708;28;20083;-81
2021/12/05 16:13:09;;;;;;;21.80;13.32;;;5.20;99.90;;;;;;5026351;28;20082;-81
2021/12/05 16:15:35;;;;;;;25.33;13.60;;;5.20;99.90;;;;;;5010506;28;20132;-81
2021/12/05 16:18:01;;;;;;;25.77;14.60;;;5.10;99.90;;;;;;5036707;28;20093;-81
2021/12/05 16:20:35;;;;;;;26.08;14.85;;;5.20;99.90;;;;;;5016940;28;20428;-81
2021/12/05 16:23:14;;;;;;;24.65;14.93;;;5.10;99.90;;;;;;5051575;28;20036;-81
2021/12/05 16:25:56;;;;;;;27.77;14.10;;;5.20;99.90;;;;;;5032608;28;20036;-82
2021/12/05 16:28:43;;;;;;;24.90;14.07;;;5.20;99.90;;;;;;4659790;28;10001607;-81
2021/12/05 16:31:29;;;;;;;45.47;25.95;;;5.20;99.90;;;;;;5061019;28;20053;-81
2021/12/05 16:33:58;;;;;;;32.45;17.02;;;5.20;99.90;;;;;;5040264;28;20414;-81
2021/12/05 16:36:52;;;;;;;31.58;16.35;;;5.20;99.90;;;;;;5039383;28;20041;-81
2021/12/05 16:39:22;;;;;;;30.27;15.13;;;5.20;99.90;;;;;;5036524;28;20113;-81
2021/12/05 16:41:54;;;;;;;31.00;15.85;;;5.10;99.90;;;;;;5048786;28;20568;-81
2021/12/05 16:44:26;;;;;;;27.02;15.93;;;5.20;99.90;;;;;;5037422;28;20079;-81
2021/12/05 16:46:58;;;;;;;29.35;18.30;;;5.10;99.90;;;;;;5070192;28;20056;-81
2021/12/05 16:49:30;;;;;;;28.63;16.40;;;5.10;99.90;;;;;;5054749;28;20499;-81
2021/12/05 16:52:03;;;;;;;23.92;16.00;;;5.00;99.90;;;;;;5040803;28;20561;-81
2021/12/05 16:54:34;;;;;;;29.50;17.63;;;5.00;99.90;;;;;;5052587;28;20143;-81
2021/12/05 16:57:11;;;;;;;29.70;17.63;;;5.00;99.90;;;;;;5055791;28;20131;-81
2021/12/05 16:59:37;;;;;;;29.45;16.52;;;5.00;99.90;;;;;;5057855;28;20067;-81
2021/12/05 17:02:15;;;;;;;29.75;17.10;;;5.00;99.90;;;;;;5038253;28;20514;-81
2021/12/05 17:05:02;;;;;;;27.67;16.55;;;5.00;99.90;;;;;;5054188;28;20116;-82
2021/12/05 17:07:44;;;;;;;30.08;17.13;;;4.90;99.90;;;;;;5038694;28;20669;-81
2021/12/05 17:10:34;;;;;;;27.27;17.60;;;4.90;99.90;;;;;;5037001;28;20449;-81
2021/12/05 17:13:15;;;;;;;28.63;18.00;;;5.00;99.90;;;;;;5037337;28;20182;-81
2021/12/05 17:15:51;;;;;;;30.75;18.60;;;5.00;99.90;;;;;;5031602;28;20044;-81
2021/12/05 17:18:45;;;;;;;36.30;21.30;;;4.90;99.90;;;;;;5037936;28;20123;-81
2021/12/05 17:21:27;;;;;;;33.90;20.17;;;4.90;99.90;;;;;;5051244;28;20496;-81
2021/12/05 17:24:01;;;;;;;34.40;19.92;;;4.90;99.90;;;;;;5055067;28;20028;-81
2021/12/05 17:26:34;;;;;;;31.48;20.08;;;4.80;99.90;;;;;;5053079;28;20037;-81
2021/12/05 17:29:20;;;;;;;28.50;18.63;;;4.80;99.90;;;;;;5038898;28;20541;-81
2021/12/05 17:31:53;;;;;;;34.38;23.40;;;4.80;99.90;;;;;;5036946;28;20072;-81
2021/12/05 17:34:25;;;;;;;39.92;28.50;;;4.80;99.90;;;;;;5039503;28;20057;-81
2021/12/05 17:37:18;;;;;;;33.85;20.67;;;4.80;99.90;;;;;;5039542;28;20047;-81
2021/12/05 17:39:45;;;;;;;33.53;20.00;;;4.70;99.90;;;;;;5033807;28;20084;-81
2021/12/05 17:42:17;;;;;;;30.98;19.48;;;4.80;99.90;;;;;;5039552;28;20392;-81
2021/12/05 17:44:45;;;;;;;27.98;18.08;;;4.80;99.90;;;;;;5052101;28;20056;-81
2021/12/05 17:47:13;;;;;;;30.63;18.15;;;4.70;99.90;;;;;;5056701;28;20040;-81
2021/12/05 17:49:41;;;;;;;27.58;16.58;;;4.70;99.90;;;;;;4981529;28;20125;-81
2021/12/05 17:52:09;;;;;;;26.63;18.70;;;4.60;99.90;;;;;;5022282;28;20036;-82
2021/12/05 17:54:49;;;;;;;28.33;18.27;;;4.60;99.90;;;;;;5047274;28;20498;-81
2021/12/05 17:57:21;;;;;;;26.55;16.60;;;4.60;99.90;;;;;;5055435;28;20099;-81
2021/12/05 18:05:08;;;;;;;28.60;16.98;;;4.50;99.90;;;;;;5044502;28;20091;-81
2021/12/05 18:07:34;;;;;;;27.20;17.25;;;4.40;99.90;;;;;;5032256;28;20098;-81
2021/12/05 18:10:00;;;;;;;29.23;17.58;;;4.40;99.90;;;;;;5042098;28;20420;-81
2021/12/05 18:12:34;;;;;;;26.45;17.42;;;4.30;99.90;;;;;;5053955;28;20039;-81
2021/12/05 18:15:02;;;;;;;23.25;15.98;;;4.30;99.90;;;;;;5047576;28;20045;-81
2021/12/05 18:17:28;;;;;;;26.17;16.23;;;4.40;99.90;;;;;;5021692;28;20465;-81
2021/12/05 18:19:54;;;;;;;25.42;16.52;;;4.40;99.90;;;;;;5023829;28;20045;-81
2021/12/05 18:22:20;;;;;;;25.17;16.25;;;4.30;99.90;;;;;;5039811;28;20080;-81
2021/12/05 18:24:46;;;;;;;26.75;16.27;;;4.30;99.90;;;;;;5027977;28;20032;-81
2021/12/05 18:27:14;;;;;;;28.17;16.70;;;4.40;99.90;;;;;;5019397;28;20065;-81
2021/12/05 18:29:42;;;;;;;26.10;16.83;;;4.30;99.90;;;;;;5049493;28;20060;-81
2021/12/05 18:32:10;;;;;;;24.20;16.30;;;4.30;99.90;;;;;;5055561;28;20036;-81
2021/12/05 18:34:37;;;;;;;28.23;16.27;;;4.20;99.90;;;;;;5049709;28;20531;-82
2021/12/05 18:37:04;;;;;;;27.15;16.73;;;4.20;99.90;;;;;;5046629;28;20048;-81
2021/12/05 18:39:36;;;;;;;29.63;17.48;;;4.30;99.90;;;;;;5026294;28;20036;-81
2021/12/05 18:42:07;;;;;;;25.95;16.40;;;4.20;99.90;;;;;;5029001;28;20082;-81
2021/12/05 18:44:38;;;;;;;26.42;16.67;;;4.20;99.90;;;;;;5030717;28;20052;-81
2021/12/05 18:47:06;;;;;;;26.65;15.70;;;4.20;99.90;;;;;;5064083;28;20103;-81
2021/12/05 18:49:32;;;;;;;25.90;16.55;;;4.10;99.90;;;;;;5063374;28;20240;-81